Time;durP1;ratioP1;P1;durP2;ratioP2;P2;SDS_P1;SDS_P2;PMS_P1;PMS_P2;Temp;Humidity;BMP_temperature;BMP_pressure;BME280_temperature;BME280_humidity;BME280_pressure;Samples;Min_cycle;Max_cycle;Signal;HPM_P1;HPM_P2
2021/12/01 00:00:44;;;;;;;7.80;3.40;;;2.20;99.90;;;;;;4972746;28;20900;-85
2021/12/01 00:03:10;;;;;;;10.52;3.60;;;2.10;99.90;;;;;;4972356;28;20399;-86
2021/12/01 00:05:36;;;;;;;8.85;2.97;;;2.10;99.90;;;;;;4972697;28;20405;-83
2021/12/01 00:08:03;;;;;;;10.60;3.35;;;2.10;99.90;;;;;;4971959;28;20411;-85
2021/12/01 00:10:34;;;;;;;6.35;2.45;;;2.10;99.90;;;;;;4972607;28;20426;-84
2021/12/01 00:13:01;;;;;;;6.50;2.63;;;2.00;99.90;;;;;;4956693;28;20453;-85
2021/12/01 00:15:27;;;;;;;6.88;2.40;;;2.00;99.90;;;;;;4973209;28;20896;-86
2021/12/01 00:17:53;;;;;;;9.25;2.95;;;2.00;99.90;;;;;;4955540;28;20382;-83
2021/12/01 00:20:20;;;;;;;9.40;2.67;;;1.90;99.90;;;;;;4955957;28;20417;-82
2021/12/01 00:22:47;;;;;;;9.02;2.75;;;1.80;99.90;;;;;;4955957;28;20398;-88
2021/12/01 00:25:15;;;;;;;10.50;2.53;;;1.80;99.90;;;;;;4973669;28;20378;-87
2021/12/01 00:27:45;;;;;;;8.15;2.45;;;1.80;99.90;;;;;;4955026;28;20410;-86
2021/12/01 00:30:12;;;;;;;6.90;2.60;;;1.80;99.90;;;;;;4956033;28;20481;-85
2021/12/01 00:32:38;;;;;;;8.75;2.45;;;1.80;99.90;;;;;;4955653;28;20449;-84
2021/12/01 00:35:05;;;;;;;5.00;2.17;;;1.80;99.90;;;;;;4973214;28;20797;-83
2021/12/01 00:37:31;;;;;;;8.43;2.70;;;1.80;99.90;;;;;;4955812;28;22748;-87
2021/12/01 00:39:57;;;;;;;8.30;2.72;;;1.80;99.90;;;;;;4955172;28;20426;-85
2021/12/01 00:42:23;;;;;;;6.30;2.65;;;1.80;99.90;;;;;;4973366;28;20371;-86
2021/12/01 00:44:55;;;;;;;9.77;3.10;;;1.80;99.90;;;;;;4973452;28;20401;-85
2021/12/01 00:47:30;;;;;;;9.18;3.17;;;1.80;99.90;;;;;;4955438;28;20402;-88
2021/12/01 00:49:56;;;;;;;13.40;4.60;;;1.90;99.90;;;;;;4954989;28;20570;-85
2021/12/01 00:52:21;;;;;;;15.63;4.37;;;1.90;99.90;;;;;;4973191;28;20980;-84
2021/12/01 00:54:47;;;;;;;10.40;3.90;;;1.90;99.90;;;;;;4956151;28;20426;-85
2021/12/01 00:57:13;;;;;;;12.07;3.70;;;1.90;99.90;;;;;;4972914;28;20390;-86
2021/12/01 00:59:38;;;;;;;9.90;3.85;;;2.00;99.90;;;;;;4956485;28;20399;-87
2021/12/01 01:02:04;;;;;;;9.90;3.72;;;2.00;99.90;;;;;;4972038;28;20382;-86
2021/12/01 01:04:30;;;;;;;9.75;3.83;;;2.10;99.90;;;;;;4955167;28;20891;-85
2021/12/01 01:06:55;;;;;;;11.38;3.70;;;2.00;99.90;;;;;;4972354;28;20465;-88
2021/12/01 01:09:23;;;;;;;10.60;3.38;;;2.00;99.90;;;;;;4972084;28;20402;-87
2021/12/01 01:17:37;;;;;;;12.15;4.20;;;2.10;99.90;;;;;;4973004;28;20481;-86
2021/12/01 01:20:12;;;;;;;10.37;3.37;;;2.20;99.90;;;;;;4951698;28;20444;-84
2021/12/01 01:22:39;;;;;;;10.98;3.55;;;2.20;99.90;;;;;;4970890;28;20398;-84
2021/12/01 01:25:08;;;;;;;13.90;4.05;;;2.30;99.90;;;;;;4973169;28;20418;-84
2021/12/01 01:27:33;;;;;;;14.23;3.95;;;2.30;99.90;;;;;;4972378;28;20465;-87
2021/12/01 01:30:00;;;;;;;11.00;3.50;;;2.30;99.90;;;;;;4971217;28;20434;-82
2021/12/01 01:32:26;;;;;;;10.02;3.83;;;2.40;99.90;;;;;;4955159;28;20400;-86
2021/12/01 01:34:51;;;;;;;11.48;3.58;;;2.40;99.90;;;;;;4971877;28;20823;-85
2021/12/01 01:37:17;;;;;;;18.35;5.05;;;2.40;99.90;;;;;;4972338;28;20394;-91
2021/12/01 01:39:43;;;;;;;16.20;5.00;;;2.50;99.90;;;;;;4970112;28;20457;-85
2021/12/01 01:42:09;;;;;;;12.70;3.83;;;2.50;99.90;;;;;;4971911;28;20469;-88
2021/12/01 01:44:34;;;;;;;11.40;4.17;;;2.40;99.90;;;;;;4972687;28;20382;-88
2021/12/01 01:47:00;;;;;;;9.93;3.47;;;2.50;99.90;;;;;;4971357;28;20402;-84
2021/12/01 01:52:10;;;;;;;15.88;4.30;;;2.60;99.90;;;;;;4968242;28;20393;-83
2021/12/01 01:54:36;;;;;;;21.50;5.03;;;2.60;99.90;;;;;;4954154;28;20477;-86
2021/12/01 01:57:02;;;;;;;19.55;4.28;;;2.70;99.90;;;;;;4954751;28;20382;-87
2021/12/01 01:59:28;;;;;;;16.70;4.13;;;2.70;99.90;;;;;;4972382;28;20379;-87
2021/12/01 02:01:56;;;;;;;16.02;4.30;;;2.60;99.90;;;;;;4971387;28;20438;-83
2021/12/01 02:04:22;;;;;;;16.52;4.07;;;2.70;99.90;;;;;;4954631;28;20421;-86
2021/12/01 02:06:49;;;;;;;11.25;3.80;;;2.70;99.90;;;;;;4954044;28;21185;-87
2021/12/01 02:09:19;;;;;;;13.68;3.88;;;2.70;99.90;;;;;;4970883;28;20565;-85
2021/12/01 02:11:46;;;;;;;16.60;3.95;;;2.70;99.90;;;;;;4938619;28;20414;-83
2021/12/01 02:14:11;;;;;;;13.98;3.83;;;2.70;99.90;;;;;;4954462;28;20391;-87
2021/12/01 02:16:37;;;;;;;15.23;3.72;;;2.80;99.90;;;;;;4973266;28;20533;-87
2021/12/01 02:19:04;;;;;;;14.13;4.05;;;2.80;99.90;;;;;;4957996;28;20387;-85
2021/12/01 02:21:31;;;;;;;15.05;4.53;;;2.80;99.90;;;;;;4969661;28;20399;-85
2021/12/01 02:23:56;;;;;;;15.48;4.10;;;2.90;99.90;;;;;;4971502;28;20430;-84
2021/12/01 02:26:23;;;;;;;15.93;4.57;;;2.90;99.90;;;;;;4954046;28;20399;-83
2021/12/01 02:28:54;;;;;;;16.35;4.93;;;2.90;99.90;;;;;;4971310;28;20468;-84
2021/12/01 02:31:22;;;;;;;17.87;4.83;;;3.00;99.90;;;;;;4971773;28;20406;-87
2021/12/01 02:33:48;;;;;;;15.88;4.75;;;3.00;99.90;;;;;;4953861;28;20541;-84
2021/12/01 02:36:14;;;;;;;19.93;4.87;;;3.10;99.90;;;;;;4970481;28;20545;-83
2021/12/01 02:38:42;;;;;;;18.88;4.63;;;3.10;99.90;;;;;;4954076;28;20393;-88
2021/12/01 02:41:09;;;;;;;20.95;4.63;;;3.20;99.90;;;;;;4953209;28;20885;-87
2021/12/01 02:43:35;;;;;;;18.20;4.82;;;3.20;99.90;;;;;;4953637;28;21093;-86
2021/12/01 02:46:01;;;;;;;19.17;5.00;;;3.20;99.90;;;;;;4953114;28;20929;-88
2021/12/01 02:48:27;;;;;;;15.82;4.93;;;3.20;99.90;;;;;;4954327;28;20411;-83
2021/12/01 02:50:53;;;;;;;15.95;4.38;;;3.30;99.90;;;;;;4969906;28;20414;-83
2021/12/01 02:53:24;;;;;;;20.10;5.10;;;3.40;99.90;;;;;;4953781;28;20414;-86
2021/12/01 02:55:56;;;;;;;23.17;5.28;;;3.40;99.90;;;;;;4971603;28;20737;-86
2021/12/01 02:58:23;;;;;;;15.27;4.15;;;3.50;99.90;;;;;;4971314;28;20398;-91
2021/12/01 03:00:52;;;;;;;19.48;4.75;;;3.50;99.90;;;;;;4953460;28;20426;-85
2021/12/01 03:03:19;;;;;;;22.52;5.05;;;3.60;99.90;;;;;;4970990;28;20727;-89
2021/12/01 03:05:47;;;;;;;16.10;4.78;;;3.60;99.90;;;;;;4952932;28;20422;-85
2021/12/01 03:08:16;;;;;;;15.18;4.05;;;3.60;99.90;;;;;;4962385;28;20393;-85
2021/12/01 03:10:46;;;;;;;18.08;4.82;;;3.70;99.90;;;;;;4970649;28;20410;-84
2021/12/01 03:13:12;;;;;;;17.23;5.07;;;3.60;99.90;;;;;;4970678;28;20486;-86
2021/12/01 03:15:38;;;;;;;23.48;5.28;;;3.70;99.90;;;;;;4969332;28;20394;-87
2021/12/01 03:18:04;;;;;;;17.80;5.07;;;3.70;99.90;;;;;;4970468;28;20481;-85
2021/12/01 03:20:29;;;;;;;18.63;4.40;;;3.60;99.90;;;;;;4953414;28;20430;-87
2021/12/01 03:22:57;;;;;;;20.10;4.57;;;3.60;99.90;;;;;;4953586;28;20437;-87
2021/12/01 03:25:23;;;;;;;20.92;4.88;;;3.70;99.90;;;;;;4952721;28;20433;-83
2021/12/01 03:27:49;;;;;;;19.77;5.15;;;3.70;99.90;;;;;;4969854;28;20954;-84
2021/12/01 03:30:14;;;;;;;20.42;5.25;;;3.70;99.90;;;;;;4952501;28;20457;-83
2021/12/01 03:32:41;;;;;;;19.50;4.75;;;3.70;99.90;;;;;;4952962;28;20391;-84
2021/12/01 03:35:09;;;;;;;17.25;5.18;;;3.80;99.90;;;;;;4972728;28;20390;-82
2021/12/01 03:37:36;;;;;;;20.40;4.93;;;3.80;99.90;;;;;;4973698;28;20406;-84
2021/12/01 03:40:03;;;;;;;15.00;4.38;;;3.80;99.90;;;;;;4974113;28;20405;-83
2021/12/01 03:42:29;;;;;;;18.33;4.75;;;3.80;99.90;;;;;;4956677;28;21053;-83
2021/12/01 03:44:55;;;;;;;19.27;5.20;;;3.90;99.90;;;;;;4974476;28;20438;-87
2021/12/01 03:47:26;;;;;;;17.73;4.80;;;3.90;99.90;;;;;;4974354;28;20784;-84
2021/12/01 03:49:52;;;;;;;17.85;4.63;;;3.90;99.90;;;;;;4955768;28;20414;-85
2021/12/01 03:52:17;;;;;;;17.42;5.65;;;4.00;99.90;;;;;;4974240;28;20425;-82
2021/12/01 03:54:44;;;;;;;17.20;4.90;;;4.00;99.90;;;;;;4974646;28;20390;-85
2021/12/01 03:57:10;;;;;;;16.33;4.78;;;4.00;99.90;;;;;;4973865;28;20394;-83
2021/12/01 03:59:36;;;;;;;15.88;4.70;;;4.10;99.90;;;;;;4974055;28;20449;-82
2021/12/01 04:02:02;;;;;;;18.13;4.90;;;4.10;99.90;;;;;;4956351;28;20386;-83
2021/12/01 04:04:28;;;;;;;14.93;4.87;;;4.20;99.90;;;;;;4973999;28;20390;-82
2021/12/01 04:06:54;;;;;;;20.87;5.30;;;4.20;99.90;;;;;;4956494;28;20401;-82
2021/12/01 04:09:20;;;;;;;13.80;4.55;;;4.20;99.90;;;;;;4956763;28;20410;-82
2021/12/01 04:11:46;;;;;;;15.77;5.07;;;4.20;99.90;;;;;;4973870;28;20456;-84
2021/12/01 04:14:12;;;;;;;18.17;4.87;;;4.30;99.90;;;;;;4973879;28;20423;-83
2021/12/01 04:16:38;;;;;;;20.67;5.53;;;4.30;99.90;;;;;;4973587;28;20753;-83
2021/12/01 04:19:04;;;;;;;18.90;4.90;;;4.30;99.90;;;;;;4973411;28;20871;-81
2021/12/01 04:21:29;;;;;;;18.98;5.07;;;4.30;99.90;;;;;;4956234;28;20738;-81
2021/12/01 04:23:56;;;;;;;20.25;6.03;;;4.30;99.90;;;;;;4973238;28;20394;-84
2021/12/01 04:26:24;;;;;;;16.23;5.35;;;4.30;99.90;;;;;;4972676;28;20434;-81
2021/12/01 04:28:51;;;;;;;22.80;5.60;;;4.30;99.90;;;;;;4956049;28;20798;-80
2021/12/01 04:31:18;;;;;;;17.85;5.00;;;4.40;99.90;;;;;;4955722;28;20418;-85
2021/12/01 04:33:44;;;;;;;14.38;4.25;;;4.40;99.90;;;;;;4973711;28;20462;-82
2021/12/01 04:36:11;;;;;;;18.13;5.18;;;4.50;99.90;;;;;;4955845;28;20458;-81
2021/12/01 04:38:37;;;;;;;14.43;4.63;;;4.50;99.90;;;;;;4955370;28;20399;-82
2021/12/01 04:41:02;;;;;;;20.17;5.40;;;4.50;99.90;;;;;;4973244;28;20388;-84
2021/12/01 04:43:29;;;;;;;15.70;4.68;;;4.50;99.90;;;;;;4973492;28;20382;-83
2021/12/01 04:45:59;;;;;;;17.80;5.10;;;4.50;99.90;;;;;;4972752;28;20410;-84
2021/12/01 04:48:26;;;;;;;16.13;4.82;;;4.50;99.90;;;;;;4973213;28;20399;-84
2021/12/01 04:50:53;;;;;;;15.00;4.90;;;4.60;99.90;;;;;;4972305;28;20502;-84
2021/12/01 04:53:19;;;;;;;18.57;4.60;;;4.60;99.90;;;;;;4973203;28;20371;-83
2021/12/01 04:55:45;;;;;;;16.42;4.90;;;4.60;99.90;;;;;;4972904;28;20394;-85
2021/12/01 04:58:10;;;;;;;17.55;4.68;;;4.60;99.90;;;;;;4955504;28;20485;-82
2021/12/01 05:00:37;;;;;;;18.67;4.60;;;4.60;99.90;;;;;;4955260;28;20481;-84
2021/12/01 05:03:06;;;;;;;16.85;5.00;;;4.60;99.90;;;;;;4955197;28;20382;-85
2021/12/01 05:05:32;;;;;;;14.27;4.15;;;4.60;99.90;;;;;;4972612;28;20393;-82
2021/12/01 05:07:58;;;;;;;16.20;4.57;;;4.60;99.90;;;;;;4972240;28;20472;-85
2021/12/01 05:10:23;;;;;;;10.90;3.73;;;4.60;99.90;;;;;;4971892;28;20418;-82
2021/12/01 05:12:49;;;;;;;19.53;4.40;;;4.60;99.90;;;;;;4955720;28;20453;-84
2021/12/01 05:15:15;;;;;;;16.63;4.23;;;4.70;99.90;;;;;;4955616;28;20394;-84
2021/12/01 05:17:41;;;;;;;19.05;4.55;;;4.60;99.90;;;;;;4972995;28;20897;-83
2021/12/01 05:20:08;;;;;;;17.95;4.18;;;4.60;99.90;;;;;;4972221;28;20397;-83
2021/12/01 05:22:34;;;;;;;21.13;4.85;;;4.70;99.90;;;;;;4972745;28;20452;-83
2021/12/01 05:25:01;;;;;;;18.40;5.07;;;4.70;99.90;;;;;;4954774;28;20426;-83
2021/12/01 05:27:27;;;;;;;13.63;4.07;;;4.60;99.90;;;;;;4955538;28;20385;-86
2021/12/01 05:29:53;;;;;;;21.17;5.05;;;4.60;99.90;;;;;;4972797;28;20394;-84
2021/12/01 05:32:20;;;;;;;15.73;4.20;;;4.60;99.90;;;;;;4972544;28;20387;-84
2021/12/01 05:34:46;;;;;;;16.67;4.53;;;4.60;99.90;;;;;;4955621;28;20749;-83
2021/12/01 05:37:12;;;;;;;17.95;4.75;;;4.60;99.90;;;;;;4972683;28;20387;-82
2021/12/01 05:39:41;;;;;;;18.50;4.60;;;4.60;99.90;;;;;;4973188;28;20469;-81
2021/12/01 05:42:07;;;;;;;18.52;4.97;;;4.50;99.90;;;;;;4978029;28;20442;-85
2021/12/01 05:44:34;;;;;;;16.88;4.93;;;4.60;99.90;;;;;;4974124;28;20407;-83
2021/12/01 05:47:00;;;;;;;20.48;5.25;;;4.60;99.90;;;;;;4970955;28;20402;-86
2021/12/01 05:49:27;;;;;;;18.88;5.43;;;4.60;99.90;;;;;;4973378;28;20781;-85
2021/12/01 05:51:52;;;;;;;19.02;5.38;;;4.60;99.90;;;;;;4971724;28;20505;-85
2021/12/01 05:54:18;;;;;;;18.15;5.32;;;4.60;99.90;;;;;;4955120;28;20482;-83
2021/12/01 05:56:44;;;;;;;16.90;5.30;;;4.70;99.90;;;;;;4972202;28;20417;-82
2021/12/01 05:59:10;;;;;;;17.70;5.57;;;4.70;99.90;;;;;;4955144;28;20382;-83
2021/12/01 06:01:36;;;;;;;15.65;5.88;;;4.70;99.90;;;;;;4954954;28;20403;-81
2021/12/01 06:04:02;;;;;;;19.97;6.27;;;4.70;99.90;;;;;;4953811;28;20464;-84
2021/12/01 06:06:28;;;;;;;18.13;5.47;;;4.60;99.90;;;;;;4971791;28;20485;-85
2021/12/01 06:08:55;;;;;;;14.57;6.28;;;4.60;99.90;;;;;;4954282;28;20394;-88
2021/12/01 06:11:22;;;;;;;14.13;6.25;;;4.70;99.90;;;;;;4954769;28;20568;-81
2021/12/01 06:13:51;;;;;;;16.77;6.38;;;4.70;99.90;;;;;;4955027;28;20466;-82
2021/12/01 06:16:24;;;;;;;15.30;6.40;;;4.70;99.90;;;;;;4972213;28;20402;-82
2021/12/01 06:18:50;;;;;;;12.52;6.45;;;4.80;99.90;;;;;;4971745;28;20418;-84
2021/12/01 06:21:16;;;;;;;12.02;5.88;;;4.80;99.90;;;;;;4971363;28;20387;-82
2021/12/01 06:23:43;;;;;;;15.15;6.40;;;4.80;99.90;;;;;;4972381;28;20378;-83
2021/12/01 06:26:09;;;;;;;12.38;6.40;;;4.80;99.90;;;;;;4953323;28;20410;-82
2021/12/01 06:28:35;;;;;;;12.95;6.15;;;4.80;99.90;;;;;;4971930;28;20459;-85
2021/12/01 06:31:01;;;;;;;12.73;6.53;;;4.80;99.90;;;;;;4953046;28;20422;-86
2021/12/01 06:33:27;;;;;;;10.02;6.50;;;4.80;99.90;;;;;;4971310;28;20401;-87
2021/12/01 06:35:53;;;;;;;11.23;7.22;;;4.90;99.90;;;;;;4971092;28;20390;-87
2021/12/01 06:38:19;;;;;;;12.07;6.90;;;5.00;99.90;;;;;;4971101;28;20409;-87
2021/12/01 06:40:47;;;;;;;11.57;7.20;;;5.10;99.90;;;;;;4970893;28;20425;-85
2021/12/01 06:43:13;;;;;;;10.05;6.93;;;5.00;99.90;;;;;;4954235;28;20434;-89
2021/12/01 06:45:39;;;;;;;10.20;7.63;;;5.10;99.90;;;;;;4971035;28;20939;-85
2021/12/01 06:48:06;;;;;;;12.32;8.60;;;5.10;99.90;;;;;;4971086;28;20470;-83
2021/12/01 06:50:32;;;;;;;14.95;8.48;;;5.10;99.90;;;;;;4971143;28;20433;-84
2021/12/01 06:52:58;;;;;;;12.50;8.55;;;5.10;99.90;;;;;;4971577;28;20375;-86
2021/12/01 06:55:23;;;;;;;12.17;9.33;;;5.20;99.90;;;;;;4969641;28;20394;-86
2021/12/01 06:57:49;;;;;;;13.48;9.00;;;5.20;99.90;;;;;;4971073;28;20801;-83
2021/12/01 07:00:18;;;;;;;14.65;9.82;;;5.30;99.90;;;;;;4970320;28;20482;-81
2021/12/01 07:02:45;;;;;;;14.80;10.80;;;5.20;99.90;;;;;;4953438;28;20797;-82
2021/12/01 07:05:12;;;;;;;12.23;10.20;;;5.30;99.90;;;;;;4970053;28;21203;-83
2021/12/01 07:07:38;;;;;;;13.75;10.60;;;5.30;99.90;;;;;;4970791;28;20390;-83
2021/12/01 07:10:09;;;;;;;15.80;10.70;;;5.30;99.90;;;;;;4956854;28;20413;-84
2021/12/01 07:12:36;;;;;;;12.50;11.13;;;5.40;99.90;;;;;;4970933;28;20442;-85
2021/12/01 07:15:03;;;;;;;16.55;11.68;;;5.40;99.90;;;;;;4953316;28;20395;-83
2021/12/01 07:17:29;;;;;;;14.15;11.43;;;5.50;99.90;;;;;;4953679;28;20386;-84
2021/12/01 07:19:55;;;;;;;16.03;12.13;;;5.50;99.90;;;;;;4953132;28;20967;-88
2021/12/01 07:22:20;;;;;;;16.95;12.48;;;5.50;99.90;;;;;;4970578;28;20442;-86
2021/12/01 07:24:47;;;;;;;17.57;13.13;;;5.60;99.90;;;;;;4970547;28;20753;-87
2021/12/01 07:27:13;;;;;;;17.77;13.45;;;5.60;99.90;;;;;;4953009;28;20382;-87
2021/12/01 07:29:39;;;;;;;19.15;14.38;;;5.60;99.90;;;;;;4970195;28;20402;-84
2021/12/01 07:32:05;;;;;;;20.10;14.07;;;5.60;99.90;;;;;;4969563;28;20497;-86
2021/12/01 07:34:31;;;;;;;18.85;13.95;;;5.60;99.90;;;;;;4969786;28;20402;-84
2021/12/01 07:36:57;;;;;;;18.27;13.50;;;5.70;99.90;;;;;;4970614;28;20738;-85
2021/12/01 07:39:22;;;;;;;18.90;13.63;;;5.70;99.90;;;;;;4970165;28;20885;-86
2021/12/01 07:41:49;;;;;;;16.55;12.90;;;5.80;99.90;;;;;;4970085;28;20412;-84
2021/12/01 07:44:15;;;;;;;19.23;13.90;;;5.80;99.90;;;;;;4970194;28;20391;-87
2021/12/01 07:46:42;;;;;;;17.70;13.90;;;5.90;99.90;;;;;;4968943;28;20445;-82
2021/12/01 07:49:13;;;;;;;16.17;12.80;;;5.90;99.90;;;;;;4970187;28;20448;-85
2021/12/01 07:51:39;;;;;;;15.52;13.05;;;6.00;99.90;;;;;;4970266;28;20840;-84
2021/12/01 07:54:06;;;;;;;15.95;13.18;;;6.00;99.90;;;;;;4970491;28;20475;-85
2021/12/01 07:56:32;;;;;;;14.77;12.80;;;6.10;99.90;;;;;;4970306;28;20409;-82
2021/12/01 07:58:58;;;;;;;14.77;12.80;;;6.10;99.90;;;;;;4953332;28;20932;-84
2021/12/01 08:01:24;;;;;;;16.23;12.35;;;6.20;99.90;;;;;;4950053;28;20391;-81
2021/12/01 08:03:50;;;;;;;13.35;11.95;;;6.20;99.90;;;;;;4964234;28;20434;-83
2021/12/01 08:06:15;;;;;;;13.80;12.40;;;6.30;99.90;;;;;;4951808;28;20390;-83
2021/12/01 08:08:41;;;;;;;13.45;12.13;;;6.40;99.90;;;;;;4970318;28;20424;-84
2021/12/01 08:11:07;;;;;;;12.75;11.52;;;6.40;99.90;;;;;;4951183;28;20917;-82
2021/12/01 08:13:32;;;;;;;13.27;11.98;;;6.50;99.90;;;;;;4949729;28;20405;-81
2021/12/01 08:16:00;;;;;;;13.23;11.83;;;6.50;99.90;;;;;;4969780;28;20382;-82
2021/12/01 08:18:26;;;;;;;12.85;11.55;;;6.60;99.90;;;;;;4970250;28;20395;-84
2021/12/01 08:20:52;;;;;;;12.48;11.20;;;6.60;99.90;;;;;;4954074;28;20399;-83
2021/12/01 08:23:17;;;;;;;12.23;11.02;;;6.60;99.90;;;;;;4963415;28;20884;-83
2021/12/01 08:25:43;;;;;;;11.75;10.65;;;6.70;99.90;;;;;;4972894;28;20489;-82
2021/12/01 08:28:09;;;;;;;11.88;10.35;;;6.70;99.90;;;;;;4956065;28;20395;-85
2021/12/01 08:30:35;;;;;;;12.25;11.00;;;6.80;99.90;;;;;;4972296;28;20932;-84
2021/12/01 08:33:01;;;;;;;10.73;9.73;;;6.80;99.90;;;;;;4956550;28;20444;-84
2021/12/01 08:35:27;;;;;;;10.70;9.60;;;6.80;99.90;;;;;;4972877;28;20405;-82
2021/12/01 08:37:52;;;;;;;10.60;9.60;;;6.80;99.90;;;;;;4973460;28;20378;-85
2021/12/01 08:40:18;;;;;;;10.47;9.47;;;6.80;99.90;;;;;;4955497;28;20888;-87
2021/12/01 08:42:46;;;;;;;10.63;9.73;;;6.80;99.90;;;;;;4972927;28;20437;-85
2021/12/01 08:45:12;;;;;;;10.30;9.20;;;6.80;99.90;;;;;;4972299;28;20387;-82
2021/12/01 08:47:38;;;;;;;10.57;9.52;;;6.80;99.90;;;;;;4955584;28;20402;-83
2021/12/01 08:50:07;;;;;;;10.07;9.07;;;6.80;99.90;;;;;;4972854;28;20895;-84
2021/12/01 08:52:33;;;;;;;10.23;9.32;;;6.90;99.90;;;;;;4955346;28;20390;-83
2021/12/01 08:54:59;;;;;;;9.50;8.60;;;6.90;99.90;;;;;;4972674;28;20482;-86
2021/12/01 08:57:24;;;;;;;9.60;8.70;;;6.90;99.90;;;;;;4959598;28;20391;-86
2021/12/01 08:59:51;;;;;;;15.27;8.90;;;6.90;99.90;;;;;;4972199;28;20386;-83
2021/12/01 09:02:17;;;;;;;9.40;8.52;;;6.80;99.90;;;;;;4972405;28;20387;-85
2021/12/01 09:04:43;;;;;;;8.65;7.85;;;6.90;99.90;;;;;;4971309;28;20417;-84
2021/12/01 09:07:09;;;;;;;8.75;7.95;;;6.90;99.90;;;;;;4972390;28;20474;-84
2021/12/01 09:09:35;;;;;;;7.85;7.13;;;6.90;99.90;;;;;;4972345;28;20387;-85
2021/12/01 09:12:01;;;;;;;8.20;6.90;;;6.90;99.90;;;;;;4972143;28;20526;-81
2021/12/01 09:14:26;;;;;;;6.90;6.30;;;6.90;99.90;;;;;;4972546;28;20465;-82
2021/12/01 09:16:55;;;;;;;6.88;6.18;;;7.00;99.90;;;;;;4956250;28;20391;-83
2021/12/01 09:19:21;;;;;;;6.53;5.95;;;6.90;99.90;;;;;;4970885;28;20386;-81
2021/12/01 09:21:48;;;;;;;6.13;5.50;;;6.90;99.90;;;;;;4960077;28;20390;-82
2021/12/01 09:24:15;;;;;;;6.10;5.50;;;6.90;99.90;;;;;;4969862;28;20394;-82
2021/12/01 09:26:42;;;;;;;5.63;5.10;;;6.90;99.90;;;;;;4954311;28;20394;-82
2021/12/01 09:29:08;;;;;;;5.00;4.60;;;7.00;99.90;;;;;;4970426;28;20444;-83
2021/12/01 09:31:34;;;;;;;4.90;4.50;;;7.00;99.90;;;;;;4952659;28;20445;-83
2021/12/01 09:34:00;;;;;;;4.55;4.07;;;7.10;99.90;;;;;;4972712;28;20793;-84
2021/12/01 09:36:26;;;;;;;4.05;3.65;;;7.10;99.90;;;;;;4951802;28;20437;-83
2021/12/01 09:38:54;;;;;;;3.90;3.40;;;7.20;99.90;;;;;;4977994;28;20410;-81
2021/12/01 09:41:22;;;;;;;3.70;3.40;;;7.20;99.90;;;;;;4971470;28;20402;-81
2021/12/01 09:43:49;;;;;;;4.10;3.20;;;7.20;99.90;;;;;;4972084;28;20442;-85
2021/12/01 09:46:14;;;;;;;3.70;3.40;;;7.20;99.90;;;;;;4968695;28;20413;-84
2021/12/01 09:48:42;;;;;;;4.45;3.53;;;7.20;99.90;;;;;;4972595;28;20717;-80
2021/12/01 09:51:08;;;;;;;3.50;3.20;;;7.20;99.90;;;;;;4952376;28;21252;-80
2021/12/01 09:53:36;;;;;;;3.78;3.30;;;7.20;99.90;;;;;;4972177;28;20393;-84
2021/12/01 09:56:03;;;;;;;4.30;3.00;;;7.20;99.90;;;;;;4969945;28;20395;-82
2021/12/01 09:58:31;;;;;;;3.17;2.90;;;7.20;99.90;;;;;;4970395;28;20423;-82
2021/12/01 10:01:03;;;;;;;3.67;3.05;;;7.20;99.90;;;;;;4971414;28;20387;-87
2021/12/01 10:03:29;;;;;;;3.65;3.22;;;7.20;99.90;;;;;;4952224;28;20466;-83
2021/12/01 10:06:02;;;;;;;3.30;3.00;;;7.30;99.90;;;;;;4970542;28;21023;-83
2021/12/01 10:08:34;;;;;;;3.70;2.85;;;7.20;99.90;;;;;;4954215;28;20391;-84
2021/12/01 10:11:06;;;;;;;4.38;2.92;;;7.30;99.90;;;;;;4970980;28;20473;-83
2021/12/01 10:13:37;;;;;;;3.20;2.90;;;7.40;99.90;;;;;;4971278;28;20406;-85
2021/12/01 10:16:05;;;;;;;3.30;3.00;;;7.30;99.90;;;;;;4953765;28;20888;-84
2021/12/01 10:18:42;;;;;;;3.03;2.75;;;7.40;99.90;;;;;;4953851;28;20383;-82
2021/12/01 10:21:14;;;;;;;3.77;3.00;;;7.40;99.90;;;;;;4971207;28;20542;-82
2021/12/01 10:23:47;;;;;;;3.10;2.80;;;7.50;99.90;;;;;;4970299;28;20407;-81
2021/12/01 10:26:24;;;;;;;3.88;3.10;;;7.60;99.90;;;;;;4970923;28;20390;-84
2021/12/01 10:28:58;;;;;;;3.30;3.00;;;7.60;99.90;;;;;;4954306;28;20406;-82
2021/12/01 10:31:32;;;;;;;3.57;3.20;;;7.50;99.90;;;;;;4970968;28;20925;-84
2021/12/01 10:34:14;;;;;;;3.15;2.95;;;7.50;99.90;;;;;;4953064;28;20397;-84
2021/12/01 10:36:40;;;;;;;4.80;3.20;;;7.50;99.90;;;;;;4969569;28;20670;-81
2021/12/01 10:39:06;;;;;;;3.58;3.25;;;7.40;99.90;;;;;;4971136;28;20382;-84
2021/12/01 10:41:36;;;;;;;3.17;2.92;;;7.50;99.90;;;;;;4969386;28;20453;-85
2021/12/01 10:44:14;;;;;;;3.30;3.00;;;7.40;99.90;;;;;;4953279;28;20516;-82
2021/12/01 10:46:52;;;;;;;3.30;3.00;;;7.40;99.90;;;;;;4953022;28;20461;-85
2021/12/01 10:49:40;;;;;;;3.58;3.28;;;7.50;99.90;;;;;;4975102;28;20386;-87
2021/12/01 10:52:07;;;;;;;3.00;2.80;;;7.50;99.90;;;;;;4971490;28;20887;-85
2021/12/01 10:54:33;;;;;;;3.65;3.10;;;7.60;99.90;;;;;;4952731;28;20821;-82
2021/12/01 10:57:22;;;;;;;3.08;2.80;;;7.50;99.90;;;;;;4953049;28;20423;-86
2021/12/01 10:59:52;;;;;;;3.90;3.20;;;7.60;99.90;;;;;;4969745;28;20753;-84
2021/12/01 11:02:19;;;;;;;3.72;3.10;;;7.60;99.90;;;;;;4970314;28;20410;-84
2021/12/01 11:04:51;;;;;;;3.28;2.97;;;7.60;99.90;;;;;;4969919;28;20382;-82
2021/12/01 11:07:33;;;;;;;3.75;2.83;;;7.60;99.90;;;;;;4969910;28;20470;-83
2021/12/01 11:10:14;;;;;;;3.42;3.13;;;7.60;99.90;;;;;;4952661;28;20407;-83
2021/12/01 11:12:41;;;;;;;3.35;3.05;;;7.60;99.90;;;;;;4970160;28;20386;-84
2021/12/01 11:15:27;;;;;;;3.50;3.20;;;7.60;99.90;;;;;;4969837;28;20382;-82
2021/12/01 11:17:55;;;;;;;3.60;3.05;;;7.70;99.90;;;;;;4953524;28;20425;-82
2021/12/01 11:20:43;;;;;;;2.80;2.60;;;7.70;99.90;;;;;;4969319;28;20504;-81
2021/12/01 11:23:22;;;;;;;3.10;2.90;;;7.70;99.90;;;;;;4970375;28;20386;-82
2021/12/01 11:26:09;;;;;;;3.30;2.60;;;7.70;99.90;;;;;;4970847;28;20455;-84
2021/12/01 11:28:56;;;;;;;3.00;2.70;;;7.80;99.90;;;;;;4958085;28;20421;-85
2021/12/01 11:31:28;;;;;;;3.00;2.50;;;7.80;99.90;;;;;;4952351;28;20410;-84
2021/12/01 11:33:57;;;;;;;2.60;2.40;;;8.00;99.90;;;;;;4969540;28;20417;-83
2021/12/01 11:36:29;;;;;;;2.45;2.20;;;8.00;99.90;;;;;;4969519;28;20412;-82
2021/12/01 11:38:57;;;;;;;2.63;2.35;;;8.00;99.90;;;;;;4969878;28;20411;-85
2021/12/01 11:41:24;;;;;;;2.80;2.10;;;8.00;99.90;;;;;;4970595;28;20956;-83
2021/12/01 11:43:51;;;;;;;2.00;1.90;;;8.10;99.90;;;;;;4970188;28;20387;-84
2021/12/01 11:46:18;;;;;;;4.15;2.20;;;8.10;99.90;;;;;;4969859;28;20877;-84
2021/12/01 11:48:52;;;;;;;2.90;2.10;;;8.10;99.90;;;;;;4971015;28;20800;-83
2021/12/01 11:51:46;;;;;;;5.35;2.60;;;8.10;99.90;;;;;;4971660;28;20449;-82
2021/12/01 11:54:19;;;;;;;2.65;2.20;;;8.10;99.90;;;;;;4953548;28;21376;-88
2021/12/01 11:57:11;;;;;;;2.40;1.92;;;8.00;99.90;;;;;;4973925;28;20406;-80
2021/12/01 11:59:42;;;;;;;2.03;1.93;;;8.10;99.90;;;;;;4972848;28;20397;-85
2021/12/01 12:02:23;;;;;;;2.05;1.83;;;8.00;99.90;;;;;;4975099;28;20398;-84
2021/12/01 12:04:53;;;;;;;2.70;1.80;;;8.10;99.90;;;;;;4957134;28;20398;-85
2021/12/01 12:07:26;;;;;;;1.70;1.60;;;8.20;99.90;;;;;;4974338;28;20403;-81
2021/12/01 12:10:17;;;;;;;1.70;1.60;;;8.10;99.90;;;;;;4957903;28;20398;-85
2021/12/01 12:13:05;;;;;;;1.70;1.60;;;8.20;99.90;;;;;;4970043;28;20406;-87
2021/12/01 12:15:38;;;;;;;1.60;1.50;;;8.20;99.90;;;;;;4974522;28;20457;-87
2021/12/01 12:18:06;;;;;;;1.83;1.70;;;8.30;99.90;;;;;;4975084;28;20386;-81
2021/12/01 12:20:39;;;;;;;1.85;1.40;;;8.30;99.90;;;;;;4974279;28;20379;-84
2021/12/01 12:23:09;;;;;;;2.58;1.52;;;8.30;99.90;;;;;;4957430;28;20406;-82
2021/12/01 12:25:38;;;;;;;1.95;1.50;;;8.30;99.90;;;;;;4957897;28;20382;-81
2021/12/01 12:28:22;;;;;;;1.80;1.63;;;8.40;99.90;;;;;;4957826;28;20394;-84
2021/12/01 12:30:48;;;;;;;1.48;1.38;;;8.30;99.90;;;;;;4973778;28;20414;-83
2021/12/01 12:33:33;;;;;;;2.28;1.48;;;8.20;99.90;;;;;;4956721;28;20482;-84
2021/12/01 12:36:05;;;;;;;2.33;1.55;;;8.20;99.90;;;;;;4974683;28;20381;-84
2021/12/01 12:38:31;;;;;;;1.67;1.58;;;8.20;99.90;;;;;;4957129;28;20777;-82
2021/12/01 12:41:10;;;;;;;1.90;1.60;;;8.30;99.90;;;;;;4972753;28;20399;-84
2021/12/01 12:43:38;;;;;;;1.40;1.30;;;8.30;99.90;;;;;;4973223;28;20414;-87
2021/12/01 12:46:09;;;;;;;1.38;1.25;;;8.30;99.90;;;;;;4955763;28;20394;-81
2021/12/01 12:48:49;;;;;;;1.98;1.50;;;8.30;99.90;;;;;;4956075;28;20453;-86
2021/12/01 12:51:20;;;;;;;1.60;1.50;;;8.30;99.90;;;;;;4973256;28;20536;-86
2021/12/01 12:54:01;;;;;;;2.13;1.42;;;8.30;99.90;;;;;;4975821;28;20955;-83
2021/12/01 12:56:32;;;;;;;1.88;1.52;;;8.40;99.90;;;;;;4959847;28;20553;-82
2021/12/01 12:59:22;;;;;;;1.88;1.55;;;8.50;99.90;;;;;;4971993;28;20390;-83
2021/12/01 13:02:07;;;;;;;1.50;1.40;;;8.40;99.90;;;;;;4972637;28;20477;-85
2021/12/01 13:05:00;;;;;;;2.22;1.58;;;8.40;99.90;;;;;;4962776;28;20578;-83